Diamond Orchid — 9VNH4 — position and weather

sailwx.info

Track history (hours):
 
Tides and Currents Weather Stations Pressure Air Temp Water Temp Dewpoint Dewpoint Depression Visibility Wind Speed Wind Dir Waves Ship Positions

Diamond Orchid

Last reported at 2016-May-25 21:29 UTC. Time now 2016-May-30 14:32 UTC.
Position N 31°03' E 122°15'.

Length 144 m; draft 5.5 m.

Type: Tanker. MMSI: 565789000.

Date/timePositionNaut miles runAvg speedWind from/ knotsBaromVisibWave heightAir tempDewpointWater temp
2016-May-25 21:29N 31°03' E 122°15'1213.3
2016-May-25 20:33N 31°05' E 122°01'1413.6
2016-May-25 19:34N 31°13' E 121°48'1010.0
2016-May-25 18:33N 31°21' E 121°40'9 9.0
2016-May-25 17:34N 31°25' E 121°31'7 7.4
2016-May-25 16:34N 31°30' E 121°25'1110.8
2016-May-25 15:33N 31°37' E 121°15'1613.0
2016-May-25 14:19N 31°47' E 120°60'3211.4
2016-May-25 11:32N 32°02' E 120°27'21 1.6
2016-May-24 22:33N 31°57' E 120°02'0 0.0
2016-May-24 17:03N 31°57' E 120°02'0 0.0
2016-May-24 16:26N 31°57' E 120°02'4 3.9
2016-May-24 15:31N 31°57' E 120°06'9 8.8
2016-May-24 14:31N 31°57' E 120°17'9 8.6
2016-May-24 13:30N 32°02' E 120°25'7 7.3
2016-May-24 12:33N 32°03' E 120°33'8 7.6
2016-May-24 11:32N 32°00' E 120°41'8 6.9
2016-May-24 10:27N 31°59' E 120°50'910.1
2016-May-24 09:33N 31°51' E 120°54'10 9.6
2016-May-24 08:32N 31°46' E 121°04'1212.3
2016-May-24 07:34N 31°38' E 121°15'1212.2
2016-May-24 06:33N 31°30' E 121°25'10 9.6
2016-May-24 05:33N 31°24' E 121°34'10 9.5
2016-May-24 04:33N 31°18' E 121°43'1210.0
2016-May-24 03:23N 31°10' E 121°53'1010.9
2016-May-24 02:27N 31°05' E 122°03'87 2.0
2016-May-22 07:33N 29°41' E 122°30'1413.7
2016-May-22 06:33N 29°47' E 122°16'1211.8
2016-May-22 05:33N 29°55' E 122°07'1111.1
2016-May-22 04:33N 29°57' E 121°54'9 0.5
2016-May-21 11:11N 29°59' E 121°45'1 1.0
2016-May-21 10:33N 29°59' E 121°45'9 8.7
2016-May-21 09:33N 29°57' E 121°55'10 9.9
2016-May-21 08:33N 29°56' E 122°06'8 8.1
2016-May-21 07:32N 29°50' E 122°13'6 6.3
2016-May-21 06:33N 29°46' E 122°19'7 6.5
2016-May-21 05:33N 29°41' E 122°24'3 0.4
2016-May-20 21:12N 29°39' E 122°26'0 0.0
2016-May-20 08:18N 29°39' E 122°26'3 3.8
2016-May-20 07:27N 29°37' E 122°30'1411.5
2016-May-20 06:16N 29°24' E 122°32'  
2016-May-17 15:20N 22°49' E 120°03'1113.6
2016-May-17 14:33N 22°39' E 119°59'  
Track history (hours):
 
Tides and Currents Weather Stations Pressure Air Temp Water Temp Dewpoint Dewpoint Depression Visibility Wind Speed Wind Dir Waves Ship Positions

Diamond Orchid

Last reported at 2016-May-25 21:29 UTC. Time now 2016-May-30 14:32 UTC.
Position N 31°03' E 122°15'.

Length 144 m; draft 5.5 m.

Type: Tanker. MMSI: 565789000.

Date/timePositionNaut miles runAvg speedWind from/ knotsBaromVisibWave heightAir tempDewpointWater temp
2016-May-25 21:29N 31°03' E 122°15'1213.3
2016-May-25 20:33N 31°05' E 122°01'1413.6
2016-May-25 19:34N 31°13' E 121°48'1010.0
2016-May-25 18:33N 31°21' E 121°40'9 9.0
2016-May-25 17:34N 31°25' E 121°31'7 7.4
2016-May-25 16:34N 31°30' E 121°25'1110.8
2016-May-25 15:33N 31°37' E 121°15'1613.0
2016-May-25 14:19N 31°47' E 120°60'3211.4
2016-May-25 11:32N 32°02' E 120°27'21 1.6
2016-May-24 22:33N 31°57' E 120°02'0 0.0
2016-May-24 17:03N 31°57' E 120°02'0 0.0
2016-May-24 16:26N 31°57' E 120°02'4 3.9
2016-May-24 15:31N 31°57' E 120°06'9 8.8
2016-May-24 14:31N 31°57' E 120°17'9 8.6
2016-May-24 13:30N 32°02' E 120°25'7 7.3
2016-May-24 12:33N 32°03' E 120°33'8 7.6
2016-May-24 11:32N 32°00' E 120°41'8 6.9
2016-May-24 10:27N 31°59' E 120°50'910.1
2016-May-24 09:33N 31°51' E 120°54'10 9.6
2016-May-24 08:32N 31°46' E 121°04'1212.3
2016-May-24 07:34N 31°38' E 121°15'1212.2
2016-May-24 06:33N 31°30' E 121°25'10 9.6
2016-May-24 05:33N 31°24' E 121°34'10 9.5
2016-May-24 04:33N 31°18' E 121°43'1210.0
2016-May-24 03:23N 31°10' E 121°53'1010.9
2016-May-24 02:27N 31°05' E 122°03'87 2.0
2016-May-22 07:33N 29°41' E 122°30'1413.7
2016-May-22 06:33N 29°47' E 122°16'1211.8
2016-May-22 05:33N 29°55' E 122°07'1111.1
2016-May-22 04:33N 29°57' E 121°54'9 0.5
2016-May-21 11:11N 29°59' E 121°45'1 1.0
2016-May-21 10:33N 29°59' E 121°45'9 8.7
2016-May-21 09:33N 29°57' E 121°55'10 9.9
2016-May-21 08:33N 29°56' E 122°06'8 8.1
2016-May-21 07:32N 29°50' E 122°13'6 6.3
2016-May-21 06:33N 29°46' E 122°19'7 6.5
2016-May-21 05:33N 29°41' E 122°24'3 0.4
2016-May-20 21:12N 29°39' E 122°26'0 0.0
2016-May-20 08:18N 29°39' E 122°26'3 3.8
2016-May-20 07:27N 29°37' E 122°30'1411.5
2016-May-20 06:16N 29°24' E 122°32'  
2016-May-17 15:20N 22°49' E 120°03'1113.6
2016-May-17 14:33N 22°39' E 119°59'  

Dump ship's entire track history